Emery, Iowa
Current Conditions -  °F | °C
As of 2:03 AM on Sunday 21 Dec 2014 (Local Time) from KMCW Reporting Station
Haze Haze  
Wind Chill: 23°   Ceiling: 300
Heat Index: 32°   Visibility: 2.5mi
Dew Point: 31°   Wind: 12mph
Humidity: 96%   Direction: 150°SSE
Pressure: 30.04"   Gusts: NA
Location:  43.1451°N, 93.1385°W
Report Text: KMCW 210803Z AUTO 15010KT 2 1/2SM BR BKN003 OVC010 00/M01 A3004 RMK AO2 T00001006 $
Loading
Personal Weather Stations






























Interactive Weather Map New forecast layout! Learn more

10-Day Weather Forecast

Advertisements
Track Severe Weather on mobile